Time;durP1;ratioP1;P1;durP2;ratioP2;P2;SDS_P1;SDS_P2;PMS_P1;PMS_P2;Temp;Humidity;BMP_temperature;BMP_pressure;BME280_temperature;BME280_humidity;BME280_pressure;Samples;Min_cycle;Max_cycle;Signal;HPM_P1;HPM_P2
2023/03/24 00:02:20;;;;;;;1.83;1.50;;;;;;;;;;5010768;28;20022;-75
2023/03/24 00:04:51;;;;;;;5.50;1.60;;;;;;;;;;5010515;28;20030;-75
2023/03/24 00:07:18;;;;;;;1.70;1.48;;;;;;;;;;5009992;28;20060;-73
2023/03/24 00:09:44;;;;;;;2.63;1.75;;;;;;;;;;5010804;28;20422;-76
2023/03/24 00:12:12;;;;;;;2.60;2.13;;;;;;;;;;5010700;28;20026;-75
2023/03/24 00:14:39;;;;;;;3.65;2.10;;;;;;;;;;5010708;28;20030;-76
2023/03/24 00:17:08;;;;;;;4.70;2.30;;;;;;;;;;5010375;28;20029;-75
2023/03/24 00:19:37;;;;;;;2.25;2.05;;;;;;;;;;4996939;28;20041;-75
2023/03/24 00:22:03;;;;;;;3.05;2.53;;;;;;;;;;5002634;28;20105;-75
2023/03/24 00:24:29;;;;;;;6.32;2.72;;;;;;;;;;5002126;28;20088;-74
2023/03/24 00:26:56;;;;;;;3.63;2.47;;;;;;;;;;4998103;28;20116;-73
2023/03/24 00:29:23;;;;;;;4.05;2.47;;;;;;;;;;5005574;28;20025;-74
2023/03/24 00:31:51;;;;;;;4.82;2.45;;;;;;;;;;5003689;28;20054;-75
2023/03/24 00:34:20;;;;;;;4.32;2.00;;;;;;;;;;5008538;28;20018;-74
2023/03/24 00:36:47;;;;;;;4.50;2.25;;;;;;;;;;5002616;28;20045;-74
2023/03/24 00:39:14;;;;;;;3.00;2.17;;;;;;;;;;4997400;28;20030;-75
2023/03/24 00:41:43;;;;;;;4.43;2.30;;;;;;;;;;5005223;28;20456;-74
2023/03/24 00:44:16;;;;;;;2.88;1.92;;;;;;;;;;5009775;28;20017;-74
2023/03/24 00:46:44;;;;;;;2.78;1.70;;;;;;;;;;5010136;28;20020;-75
2023/03/24 00:49:11;;;;;;;5.53;2.00;;;;;;;;;;4998303;28;20038;-75
2023/03/24 00:51:39;;;;;;;3.17;2.00;;;;;;;;;;4998212;28;20053;-75
2023/03/24 00:54:06;;;;;;;3.85;2.08;;;;;;;;;;4992253;28;20082;-74
2023/03/24 00:56:36;;;;;;;3.65;2.50;;;;;;;;;;5002824;28;20062;-76
2023/03/24 00:59:03;;;;;;;5.00;2.20;;;;;;;;;;5006896;28;20045;-75
2023/03/24 01:01:31;;;;;;;2.75;2.20;;;;;;;;;;5008995;28;20030;-75
2023/03/24 01:03:58;;;;;;;2.25;1.73;;;;;;;;;;4992007;28;20031;-75
2023/03/24 01:06:25;;;;;;;2.65;2.20;;;;;;;;;;5008301;28;20042;-74
2023/03/24 01:08:52;;;;;;;4.38;2.42;;;;;;;;;;5009273;28;20395;-73
2023/03/24 01:11:20;;;;;;;3.10;2.50;;;;;;;;;;5005954;28;20495;-74
2023/03/24 01:13:46;;;;;;;5.20;2.63;;;;;;;;;;4981689;28;20034;-74
2023/03/24 01:16:12;;;;;;;3.22;1.85;;;;;;;;;;5005088;28;20495;-74
2023/03/24 01:18:39;;;;;;;6.78;2.58;;;;;;;;;;5005160;28;20053;-74
2023/03/24 01:21:06;;;;;;;4.38;2.33;;;;;;;;;;4997871;28;20030;-74
2023/03/24 01:23:33;;;;;;;4.63;2.17;;;;;;;;;;5068743;28;20377;-74
2023/03/24 01:25:59;;;;;;;5.82;2.45;;;;;;;;;;5009946;28;20023;-75
2023/03/24 01:28:26;;;;;;;5.43;2.50;;;;;;;;;;5000855;28;20365;-74
2023/03/24 01:30:52;;;;;;;2.30;2.10;;;;;;;;;;4999597;28;20276;-74
2023/03/24 01:33:18;;;;;;;7.82;2.60;;;;;;;;;;4999075;28;20034;-74
2023/03/24 01:35:44;;;;;;;5.03;2.35;;;;;;;;;;4992080;28;20062;-73
2023/03/24 01:38:11;;;;;;;5.10;2.60;;;;;;;;;;4997159;28;20187;-75
2023/03/24 01:40:39;;;;;;;2.78;2.30;;;;;;;;;;4996910;28;20022;-74
2023/03/24 01:43:07;;;;;;;3.55;2.60;;;;;;;;;;4983732;28;20487;-74
2023/03/24 01:45:39;;;;;;;5.07;2.08;;;;;;;;;;4994059;28;20392;-74
2023/03/24 01:48:07;;;;;;;6.95;2.10;;;;;;;;;;5005576;28;20014;-74
2023/03/24 01:50:33;;;;;;;3.50;1.90;;;;;;;;;;5009305;28;20089;-74
2023/03/24 01:53:00;;;;;;;4.60;2.03;;;;;;;;;;5009144;28;20113;-74
2023/03/24 01:55:26;;;;;;;3.17;2.10;;;;;;;;;;5008397;28;20113;-73
2023/03/24 01:57:54;;;;;;;3.88;2.47;;;;;;;;;;5008486;28;20510;-74
2023/03/24 02:00:21;;;;;;;3.40;2.17;;;;;;;;;;5003767;28;20040;-73
2023/03/24 02:02:53;;;;;;;4.40;2.17;;;;;;;;;;5004753;28;20514;-74
2023/03/24 02:05:21;;;;;;;4.50;2.15;;;;;;;;;;4999911;28;20053;-74
2023/03/24 02:07:52;;;;;;;4.28;2.30;;;;;;;;;;4991311;28;20030;-74
2023/03/24 02:10:19;;;;;;;5.90;2.25;;;;;;;;;;4998563;28;20022;-74
2023/03/24 02:12:45;;;;;;;5.43;2.25;;;;;;;;;;5001113;28;20041;-74
2023/03/24 02:15:13;;;;;;;4.70;2.70;;;;;;;;;;4999335;28;20033;-75
2023/03/24 02:17:53;;;;;;;2.20;2.00;;;;;;;;;;4974011;28;20121;-75
2023/03/24 02:20:19;;;;;;;4.43;2.33;;;;;;;;;;5007635;28;20442;-76
2023/03/24 02:23:05;;;;;;;5.80;2.40;;;;;;;;;;4991160;28;20030;-78
2023/03/24 02:25:46;;;;;;;3.50;1.83;;;;;;;;;;5008839;28;20052;-76
2023/03/24 02:28:31;;;;;;;3.63;2.08;;;;;;;;;;4988648;28;20029;-76
2023/03/24 02:31:05;;;;;;;4.70;2.20;;;;;;;;;;4988986;28;20038;-76
2023/03/24 02:33:46;;;;;;;2.95;2.35;;;;;;;;;;4989351;28;20131;-75
2023/03/24 02:36:14;;;;;;;3.53;2.33;;;;;;;;;;4995832;28;20462;-73
2023/03/24 02:38:52;;;;;;;2.50;2.05;;;;;;;;;;5000087;28;20069;-76
2023/03/24 02:41:36;;;;;;;6.15;2.75;;;;;;;;;;4998805;28;20018;-74
2023/03/24 02:44:02;;;;;;;3.30;2.25;;;;;;;;;;4992414;28;20018;-75
2023/03/24 02:46:36;;;;;;;3.35;2.50;;;;;;;;;;5008345;28;20026;-75
2023/03/24 02:49:02;;;;;;;2.75;2.50;;;;;;;;;;4999743;28;20163;-74
2023/03/24 02:51:39;;;;;;;3.10;2.40;;;;;;;;;;4988955;28;20101;-73
2023/03/24 02:54:13;;;;;;;7.93;2.70;;;;;;;;;;4989270;28;20035;-74
2023/03/24 02:56:42;;;;;;;4.30;2.42;;;;;;;;;;5006888;28;20026;-74
2023/03/24 02:59:17;;;;;;;3.45;2.58;;;;;;;;;;5007654;28;20357;-74
2023/03/24 03:01:52;;;;;;;3.58;2.22;;;;;;;;;;5008437;28;20120;-75
2023/03/24 03:04:22;;;;;;;3.88;2.63;;;;;;;;;;5008210;28;20095;-76
2023/03/24 03:06:51;;;;;;;2.63;2.15;;;;;;;;;;5009325;28;20022;-76
2023/03/24 03:09:19;;;;;;;5.35;2.80;;;;;;;;;;5010980;28;20022;-74
2023/03/24 03:11:47;;;;;;;4.28;2.45;;;;;;;;;;5011601;28;20022;-75
2023/03/24 03:14:15;;;;;;;2.92;2.40;;;;;;;;;;4994228;28;20032;-74
2023/03/24 03:16:44;;;;;;;3.63;2.40;;;;;;;;;;5011418;28;20502;-74
2023/03/24 03:19:19;;;;;;;3.13;2.10;;;;;;;;;;5010903;28;20026;-75
2023/03/24 03:21:46;;;;;;;3.42;1.98;;;;;;;;;;5011373;28;20109;-74
2023/03/24 03:24:14;;;;;;;3.28;2.45;;;;;;;;;;5011409;28;20041;-75
2023/03/24 03:26:42;;;;;;;3.22;2.17;;;;;;;;;;5011506;28;20487;-75
2023/03/24 03:29:11;;;;;;;3.95;2.45;;;;;;;;;;5010580;28;20041;-74
2023/03/24 03:31:40;;;;;;;4.38;2.60;;;;;;;;;;5011025;28;20030;-76
2023/03/24 03:34:11;;;;;;;4.05;2.50;;;;;;;;;;5011376;28;20028;-76
2023/03/24 03:37:00;;;;;;;3.85;2.60;;;;;;;;;;5011316;28;20029;-77
2023/03/24 03:39:32;;;;;;;6.65;2.88;;;;;;;;;;5010843;28;20495;-76
2023/03/24 03:41:58;;;;;;;4.07;2.17;;;;;;;;;;5011375;28;20041;-76
2023/03/24 03:44:25;;;;;;;5.32;2.40;;;;;;;;;;5011307;28;20033;-76
2023/03/24 03:46:51;;;;;;;4.50;2.25;;;;;;;;;;5006788;28;20113;-76
2023/03/24 03:49:17;;;;;;;3.58;2.88;;;;;;;;;;5006827;28;20032;-73
2023/03/24 03:51:43;;;;;;;4.32;2.65;;;;;;;;;;5006721;28;20042;-74
2023/03/24 03:54:12;;;;;;;4.25;1.83;;;;;;;;;;5006424;28;20389;-75
2023/03/24 03:56:38;;;;;;;3.63;2.60;;;;;;;;;;5011352;28;20545;-75
2023/03/24 03:59:05;;;;;;;3.15;2.30;;;;;;;;;;5010955;28;20033;-76
2023/03/24 04:01:35;;;;;;;3.03;2.42;;;;;;;;;;5022428;28;20022;-75
2023/03/24 04:04:10;;;;;;;11.02;2.60;;;;;;;;;;5012171;28;20026;-76
2023/03/24 04:06:39;;;;;;;2.67;2.20;;;;;;;;;;5031294;28;20022;-76
2023/03/24 04:09:15;;;;;;;4.47;2.38;;;;;;;;;;5019902;28;20061;-74
2023/03/24 04:12:00;;;;;;;3.78;2.30;;;;;;;;;;5010995;28;20022;-75
2023/03/24 04:14:36;;;;;;;5.05;2.03;;;;;;;;;;4993471;28;20110;-75
2023/03/24 04:17:10;;;;;;;6.45;2.70;;;;;;;;;;4992834;28;20029;-73
2023/03/24 04:19:42;;;;;;;2.58;2.13;;;;;;;;;;5010481;28;20029;-76
2023/03/24 04:22:08;;;;;;;5.30;2.80;;;;;;;;;;5010360;28;20033;-75
2023/03/24 04:24:38;;;;;;;3.65;2.10;;;;;;;;;;4993162;28;20022;-76
2023/03/24 04:27:26;;;;;;;5.13;2.72;;;;;;;;;;5009832;28;20030;-77
2023/03/24 04:30:06;;;;;;;2.85;2.15;;;;;;;;;;5010344;28;20033;-75
2023/03/24 04:32:32;;;;;;;9.80;2.90;;;;;;;;;;5010736;28;20030;-75
2023/03/24 04:35:00;;;;;;;2.28;1.85;;;;;;;;;;5010535;28;20030;-75
2023/03/24 04:37:31;;;;;;;3.70;2.80;;;;;;;;;;5009614;28;20037;-75
2023/03/24 04:39:59;;;;;;;3.95;2.58;;;;;;;;;;5010095;28;20113;-76
2023/03/24 04:42:31;;;;;;;4.20;2.58;;;;;;;;;;5010637;28;20162;-76
2023/03/24 04:44:58;;;;;;;3.45;2.60;;;;;;;;;;5010425;28;20113;-74
2023/03/24 04:47:26;;;;;;;4.10;2.45;;;;;;;;;;5009330;28;20018;-73
2023/03/24 04:49:59;;;;;;;3.17;2.50;;;;;;;;;;5009787;28;20628;-73
2023/03/24 04:52:26;;;;;;;3.83;2.38;;;;;;;;;;5010171;28;20030;-75
2023/03/24 04:54:52;;;;;;;2.83;2.08;;;;;;;;;;5010089;28;20444;-73
2023/03/24 04:57:18;;;;;;;3.25;2.45;;;;;;;;;;5009400;28;20026;-74
2023/03/24 04:59:45;;;;;;;3.53;2.00;;;;;;;;;;5010049;28;20099;-75
2023/03/24 05:02:11;;;;;;;3.20;2.22;;;;;;;;;;5009746;28;20055;-75
2023/03/24 05:04:37;;;;;;;3.95;2.17;;;;;;;;;;5010053;28;20486;-74
2023/03/24 05:07:03;;;;;;;2.28;1.80;;;;;;;;;;5001927;28;20022;-75
2023/03/24 05:09:32;;;;;;;4.95;1.98;;;;;;;;;;5004235;28;20166;-76
2023/03/24 05:11:58;;;;;;;5.15;2.38;;;;;;;;;;5005439;28;20086;-77
2023/03/24 05:14:25;;;;;;;4.72;2.60;;;;;;;;;;5002191;28;20479;-75
2023/03/24 05:16:51;;;;;;;2.55;1.88;;;;;;;;;;5001649;28;20022;-75
2023/03/24 05:19:17;;;;;;;5.03;2.40;;;;;;;;;;4989644;28;20399;-75
2023/03/24 05:21:43;;;;;;;2.83;2.33;;;;;;;;;;4990071;28;20472;-74
2023/03/24 05:24:09;;;;;;;3.90;2.50;;;;;;;;;;4972711;28;20037;-75
2023/03/24 05:26:35;;;;;;;6.43;2.85;;;;;;;;;;4990115;28;20023;-75
2023/03/24 05:29:02;;;;;;;4.18;3.00;;;;;;;;;;4996956;28;20050;-74
2023/03/24 05:31:28;;;;;;;4.03;2.92;;;;;;;;;;5003332;28;20083;-76
2023/03/24 05:33:54;;;;;;;3.78;2.80;;;;;;;;;;4998123;28;20411;-74
2023/03/24 05:36:20;;;;;;;5.13;2.92;;;;;;;;;;5007624;28;20018;-73
2023/03/24 05:38:46;;;;;;;8.25;2.90;;;;;;;;;;5001867;28;20097;-76
2023/03/24 05:41:12;;;;;;;3.42;2.85;;;;;;;;;;5009249;28;20061;-74
2023/03/24 05:43:38;;;;;;;4.18;2.80;;;;;;;;;;4989746;28;20064;-74
2023/03/24 05:46:04;;;;;;;5.18;3.25;;;;;;;;;;4999560;28;20052;-76
2023/03/24 05:48:30;;;;;;;5.53;2.90;;;;;;;;;;5002912;28;20030;-76
2023/03/24 05:50:56;;;;;;;4.63;2.92;;;;;;;;;;4989293;28;20022;-75
2023/03/24 05:53:22;;;;;;;6.70;3.33;;;;;;;;;;4978327;28;20029;-75
2023/03/24 05:55:48;;;;;;;4.57;2.97;;;;;;;;;;5007679;28;20060;-76
2023/03/24 05:58:15;;;;;;;5.22;3.40;;;;;;;;;;5008003;28;20022;-76
2023/03/24 06:00:41;;;;;;;6.68;3.47;;;;;;;;;;4999417;28;20338;-73
2023/03/24 06:03:07;;;;;;;7.07;3.83;;;;;;;;;;4996741;28;20052;-74
2023/03/24 06:05:33;;;;;;;6.60;4.30;;;;;;;;;;5007431;28;20022;-73
2023/03/24 06:08:00;;;;;;;7.05;4.60;;;;;;;;;;5007642;28;20383;-74
2023/03/24 06:10:26;;;;;;;7.55;4.72;;;;;;;;;;5001718;28;20020;-74
2023/03/24 06:12:56;;;;;;;7.10;4.88;;;;;;;;;;5000129;28;20377;-74
2023/03/24 06:15:23;;;;;;;5.10;3.55;;;;;;;;;;5005751;28;20022;-76
2023/03/24 06:17:49;;;;;;;7.70;4.35;;;;;;;;;;4998294;28;20569;-75
2023/03/24 06:20:17;;;;;;;5.80;3.28;;;;;;;;;;5003354;28;20037;-75
2023/03/24 06:22:44;;;;;;;6.32;3.20;;;;;;;;;;5008626;28;20483;-75
2023/03/24 06:25:11;;;;;;;3.28;2.42;;;;;;;;;;5008519;28;20161;-75
2023/03/24 06:27:37;;;;;;;3.80;2.70;;;;;;;;;;5003668;28;20010;-75
2023/03/24 06:30:04;;;;;;;5.07;2.67;;;;;;;;;;4990913;28;20027;-74
2023/03/24 06:32:30;;;;;;;4.63;2.20;;;;;;;;;;5008825;28;20103;-72
2023/03/24 06:34:56;;;;;;;3.63;2.20;;;;;;;;;;5002233;28;20025;-73
2023/03/24 06:37:22;;;;;;;4.95;2.40;;;;;;;;;;5008332;28;20393;-74
2023/03/24 06:39:48;;;;;;;5.13;2.65;;;;;;;;;;5008075;28;20026;-77
2023/03/24 06:42:14;;;;;;;4.97;2.13;;;;;;;;;;4994160;28;20396;-77
2023/03/24 06:44:41;;;;;;;2.90;2.15;;;;;;;;;;4994930;28;20029;-75
2023/03/24 06:47:07;;;;;;;3.78;2.13;;;;;;;;;;4990189;28;20042;-72
2023/03/24 06:49:33;;;;;;;3.15;2.25;;;;;;;;;;5002320;28;20076;-75
2023/03/24 06:52:00;;;;;;;3.38;2.10;;;;;;;;;;5010152;28;20032;-72
2023/03/24 06:54:27;;;;;;;3.10;1.85;;;;;;;;;;5007176;28;20026;-75
2023/03/24 06:56:53;;;;;;;4.13;2.08;;;;;;;;;;4985768;28;20045;-74
2023/03/24 06:59:22;;;;;;;2.42;2.00;;;;;;;;;;4991077;28;20027;-77
2023/03/24 07:01:49;;;;;;;3.50;2.17;;;;;;;;;;4991930;28;20400;-76
2023/03/24 07:04:15;;;;;;;3.03;2.00;;;;;;;;;;4992325;28;20420;-78
2023/03/24 07:06:41;;;;;;;2.58;1.92;;;;;;;;;;4992008;28;20464;-76
2023/03/24 07:09:08;;;;;;;4.03;1.92;;;;;;;;;;4991346;28;20488;-75
2023/03/24 07:11:34;;;;;;;4.72;2.20;;;;;;;;;;5002719;28;20034;-74
2023/03/24 07:14:00;;;;;;;6.47;2.33;;;;;;;;;;5011516;28;20104;-76
2023/03/24 07:16:26;;;;;;;4.53;2.30;;;;;;;;;;5009305;28;20034;-73
2023/03/24 07:18:52;;;;;;;6.22;2.17;;;;;;;;;;5010703;28;20030;-76
2023/03/24 07:21:18;;;;;;;5.28;2.53;;;;;;;;;;5011854;28;20437;-75
2023/03/24 07:23:44;;;;;;;3.80;2.30;;;;;;;;;;5011770;28;20152;-75
2023/03/24 07:26:10;;;;;;;4.30;2.00;;;;;;;;;;5011427;28;20025;-75
2023/03/24 07:28:36;;;;;;;2.63;1.90;;;;;;;;;;4993200;28;20034;-75
2023/03/24 07:31:09;;;;;;;7.20;2.25;;;;;;;;;;5011300;28;20121;-76
2023/03/24 07:33:39;;;;;;;3.63;2.28;;;;;;;;;;5012122;28;20105;-76
2023/03/24 07:36:06;;;;;;;4.68;2.00;;;;;;;;;;4993752;28;20034;-76
2023/03/24 07:38:32;;;;;;;4.13;1.67;;;;;;;;;;5010473;28;20033;-75
2023/03/24 07:40:59;;;;;;;2.72;1.70;;;;;;;;;;5011099;28;20108;-75
2023/03/24 07:43:25;;;;;;;3.88;1.73;;;;;;;;;;5011242;28;20034;-76
2023/03/24 07:45:52;;;;;;;2.40;2.03;;;;;;;;;;5011716;28;20018;-75
2023/03/24 07:48:18;;;;;;;3.63;1.90;;;;;;;;;;5010424;28;20018;-75
2023/03/24 07:50:44;;;;;;;2.88;1.85;;;;;;;;;;5010779;28;20018;-76
2023/03/24 07:53:10;;;;;;;4.05;2.25;;;;;;;;;;5010280;28;20526;-76
2023/03/24 07:55:37;;;;;;;3.95;1.88;;;;;;;;;;5010760;28;20427;-76
2023/03/24 07:58:03;;;;;;;4.70;1.90;;;;;;;;;;5007541;28;20087;-75
2023/03/24 08:00:31;;;;;;;4.35;2.00;;;;;;;;;;5010695;28;20029;-76
2023/03/24 08:02:58;;;;;;;3.97;1.80;;;;;;;;;;5009461;28;20026;-75
2023/03/24 08:05:26;;;;;;;3.53;1.65;;;;;;;;;;5004041;28;20018;-76
2023/03/24 08:07:52;;;;;;;2.65;1.88;;;;;;;;;;4990357;28;20073;-76
2023/03/24 08:10:20;;;;;;;2.85;1.95;;;;;;;;;;5010494;28;20018;-75
2023/03/24 08:12:46;;;;;;;2.22;1.98;;;;;;;;;;4993172;28;20026;-75
2023/03/24 08:15:13;;;;;;;4.13;1.98;;;;;;;;;;5010079;28;20033;-75
2023/03/24 08:17:40;;;;;;;3.20;1.77;;;;;;;;;;5009337;28;20037;-75
2023/03/24 08:20:08;;;;;;;4.00;1.77;;;;;;;;;;5010682;28;20616;-74
2023/03/24 08:22:34;;;;;;;2.35;1.90;;;;;;;;;;5010532;28;20465;-77
2023/03/24 08:25:00;;;;;;;2.38;1.85;;;;;;;;;;5010391;28;20026;-77
2023/03/24 08:27:26;;;;;;;3.70;2.65;;;;;;;;;;5009659;28;20034;-77
2023/03/24 08:29:52;;;;;;;3.88;2.20;;;;;;;;;;5010561;28;20029;-77
2023/03/24 08:32:18;;;;;;;3.85;2.28;;;;;;;;;;5010154;28;20030;-75
2023/03/24 08:34:44;;;;;;;5.35;2.35;;;;;;;;;;5008510;28;20565;-76
2023/03/24 08:37:10;;;;;;;3.58;2.15;;;;;;;;;;5007853;28;20030;-75
2023/03/24 08:39:36;;;;;;;4.57;2.33;;;;;;;;;;5008482;28;20031;-76
2023/03/24 08:42:03;;;;;;;5.30;2.25;;;;;;;;;;5008176;28;20028;-76
2023/03/24 08:44:29;;;;;;;3.45;1.98;;;;;;;;;;5008372;28;20026;-75
2023/03/24 08:46:55;;;;;;;4.53;2.42;;;;;;;;;;5008870;28;20365;-76
2023/03/24 08:49:21;;;;;;;3.70;2.65;;;;;;;;;;5008958;28;20032;-75
2023/03/24 08:51:47;;;;;;;2.92;2.15;;;;;;;;;;5009990;28;20022;-75
2023/03/24 08:54:13;;;;;;;3.20;2.50;;;;;;;;;;5009940;28;20381;-76
2023/03/24 08:56:39;;;;;;;3.72;2.60;;;;;;;;;;5009998;28;20443;-77
2023/03/24 08:59:05;;;;;;;4.05;2.60;;;;;;;;;;5009678;28;20399;-76
2023/03/24 09:01:34;;;;;;;3.03;2.15;;;;;;;;;;5010263;28;20441;-76
2023/03/24 09:04:01;;;;;;;2.60;1.90;;;;;;;;;;5010003;28;20030;-75
2023/03/24 09:06:27;;;;;;;2.92;2.05;;;;;;;;;;5010015;28;20076;-76
2023/03/24 09:08:54;;;;;;;2.15;1.65;;;;;;;;;;5005578;28;20018;-75
2023/03/24 09:11:21;;;;;;;4.65;2.45;;;;;;;;;;5008459;28;20029;-74
2023/03/24 09:13:47;;;;;;;3.50;2.30;;;;;;;;;;5010229;28;20395;-75
2023/03/24 09:16:14;;;;;;;3.22;2.30;;;;;;;;;;5009941;28;20029;-75
2023/03/24 09:18:41;;;;;;;3.90;2.30;;;;;;;;;;5010182;28;20034;-75
2023/03/24 09:21:07;;;;;;;3.35;2.33;;;;;;;;;;5009937;28;20032;-75
2023/03/24 09:23:33;;;;;;;3.65;2.20;;;;;;;;;;5010090;28;20037;-76
2023/03/24 09:26:00;;;;;;;4.00;2.03;;;;;;;;;;5010133;28;20480;-76
2023/03/24 09:28:26;;;;;;;2.97;2.10;;;;;;;;;;4987426;28;20075;-77
2023/03/24 09:30:56;;;;;;;2.35;1.65;;;;;;;;;;5009394;28;20033;-77
2023/03/24 09:33:23;;;;;;;2.92;2.00;;;;;;;;;;5005077;28;20037;-76
2023/03/24 09:35:59;;;;;;;2.28;1.95;;;;;;;;;;4993730;28;20065;-76
2023/03/24 09:38:25;;;;;;;5.35;2.17;;;;;;;;;;5014178;28;20164;-77
2023/03/24 09:40:55;;;;;;;6.10;2.63;;;;;;;;;;5026414;28;20040;-78
2023/03/24 09:43:27;;;;;;;3.95;2.42;;;;;;;;;;5027749;28;20046;-77
2023/03/24 09:45:55;;;;;;;4.32;2.15;;;;;;;;;;5024737;28;20052;-77
2023/03/24 09:48:21;;;;;;;4.50;1.88;;;;;;;;;;5010102;28;20018;-77
2023/03/24 09:50:47;;;;;;;2.92;1.88;;;;;;;;;;5006307;28;20099;-77
2023/03/24 09:53:33;;;;;;;4.47;2.35;;;;;;;;;;4993847;28;20030;-76
2023/03/24 09:56:03;;;;;;;2.55;1.83;;;;;;;;;;4970157;28;20117;-76
2023/03/24 09:58:30;;;;;;;4.80;2.47;;;;;;;;;;4986722;28;20022;-76
2023/03/24 10:00:56;;;;;;;3.10;2.00;;;;;;;;;;4987910;28;20034;-76
2023/03/24 10:03:23;;;;;;;3.42;1.98;;;;;;;;;;4999995;28;20026;-76
2023/03/24 10:05:54;;;;;;;4.78;1.83;;;;;;;;;;5007610;28;20022;-76
2023/03/24 10:08:25;;;;;;;1.70;1.40;;;;;;;;;;5006866;28;20527;-75
2023/03/24 10:10:58;;;;;;;2.45;1.77;;;;;;;;;;5008015;28;20033;-75
2023/03/24 10:13:44;;;;;;;2.47;1.70;;;;;;;;;;5008896;28;20369;-75
2023/03/24 10:16:10;;;;;;;3.20;1.60;;;;;;;;;;5007993;28;20053;-77
2023/03/24 10:18:39;;;;;;;1.88;1.33;;;;;;;;;;5007856;28;20022;-78
2023/03/24 10:21:09;;;;;;;3.60;1.40;;;;;;;;;;5008443;28;20529;-76
2023/03/24 10:23:54;;;;;;;2.93;1.20;;;;;;;;;;5008529;28;20068;-75
2023/03/24 10:26:35;;;;;;;1.38;1.27;;;;;;;;;;5006771;28;20450;-74
2023/03/24 10:29:20;;;;;;;1.10;0.98;;;;;;;;;;5006068;28;20026;-76
2023/03/24 10:31:48;;;;;;;1.13;0.98;;;;;;;;;;5006423;28;20034;-76
2023/03/24 10:34:14;;;;;;;3.72;1.10;;;;;;;;;;5006517;28;20049;-77
2023/03/24 10:36:40;;;;;;;2.88;1.05;;;;;;;;;;5006215;28;20037;-76
2023/03/24 10:39:09;;;;;;;1.08;0.70;;;;;;;;;;5005976;28;20103;-73
2023/03/24 10:41:36;;;;;;;2.03;0.77;;;;;;;;;;5008305;28;20040;-76
2023/03/24 10:44:02;;;;;;;3.13;0.80;;;;;;;;;;5008642;28;20033;-76
2023/03/24 10:46:30;;;;;;;0.90;0.60;;;;;;;;;;4991226;28;20029;-76
2023/03/24 10:49:11;;;;;;;2.38;0.70;;;;;;;;;;5007390;28;20109;-76
2023/03/24 10:51:38;;;;;;;;;;;;;;;;;;5008795;28;20018;-77
2023/03/24 10:54:17;;;;;;;1.52;0.90;;;;;;;;;;5008151;28;19928;-76
2023/03/24 10:56:50;;;;;;;1.20;0.90;;;;;;;;;;5008324;28;20427;-74
2023/03/24 10:59:26;;;;;;;2.53;0.68;;;;;;;;;;5007795;28;20033;-76
2023/03/24 11:02:00;;;;;;;3.40;1.02;;;;;;;;;;5008316;28;20033;-76
2023/03/24 11:04:27;;;;;;;0.50;0.50;;;;;;;;;;5008275;28;20456;-75
2023/03/24 11:07:12;;;;;;;2.65;0.90;;;;;;;;;;5007911;28;20033;-76
2023/03/24 11:09:39;;;;;;;2.47;0.70;;;;;;;;;;5008319;28;20026;-76
2023/03/24 11:12:05;;;;;;;1.65;0.50;;;;;;;;;;5007884;28;20605;-76
2023/03/24 11:14:31;;;;;;;1.27;0.60;;;;;;;;;;5008260;28;20285;-76
2023/03/24 11:17:11;;;;;;;1.23;0.60;;;;;;;;;;5007919;28;20038;-74
2023/03/24 11:19:38;;;;;;;3.63;0.90;;;;;;;;;;5008096;28;20041;-76
2023/03/24 11:22:06;;;;;;;3.65;0.70;;;;;;;;;;5007863;28;20054;-76
2023/03/24 11:24:35;;;;;;;2.00;0.75;;;;;;;;;;5007682;28;20488;-75
2023/03/24 11:27:02;;;;;;;1.48;0.88;;;;;;;;;;5007815;28;20030;-74
2023/03/24 11:29:29;;;;;;;1.33;0.52;;;;;;;;;;5010643;28;20025;-75
2023/03/24 11:31:57;;;;;;;2.75;0.68;;;;;;;;;;4994686;28;20034;-76
2023/03/24 11:34:33;;;;;;;3.38;0.90;;;;;;;;;;5011308;28;20059;-76
2023/03/24 11:37:01;;;;;;;0.73;0.63;;;;;;;;;;5010524;28;20120;-77
2023/03/24 11:39:28;;;;;;;2.17;0.73;;;;;;;;;;5010856;28;20026;-74
2023/03/24 11:42:09;;;;;;;2.67;0.90;;;;;;;;;;5011332;28;20106;-76
2023/03/24 11:44:38;;;;;;;1.60;1.02;;;;;;;;;;5011119;28;20030;-76
2023/03/24 11:47:23;;;;;;;1.00;0.75;;;;;;;;;;5010699;28;20480;-76
2023/03/24 11:49:55;;;;;;;3.58;1.00;;;;;;;;;;5010978;28;20365;-73
2023/03/24 11:52:27;;;;;;;4.97;1.00;;;;;;;;;;5011839;28;20390;-74
2023/03/24 11:54:54;;;;;;;1.48;0.60;;;;;;;;;;5011035;28;20109;-75
2023/03/24 11:57:24;;;;;;;1.15;0.70;;;;;;;;;;5010513;28;20085;-77
2023/03/24 12:00:02;;;;;;;0.95;0.73;;;;;;;;;;5010559;28;20029;-75
2023/03/24 12:02:47;;;;;;;2.15;0.68;;;;;;;;;;5010759;28;20512;-77
2023/03/24 12:05:23;;;;;;;4.15;1.00;;;;;;;;;;5010822;28;20488;-77
2023/03/24 12:08:01;;;;;;;1.55;0.63;;;;;;;;;;5009785;28;20050;-79
2023/03/24 12:10:44;;;;;;;2.58;0.90;;;;;;;;;;5008981;28;20014;-76
2023/03/24 12:13:12;;;;;;;0.88;0.70;;;;;;;;;;5001966;28;20029;-77
2023/03/24 12:15:47;;;;;;;2.35;0.80;;;;;;;;;;5009415;28;20073;-77
2023/03/24 12:18:25;;;;;;;1.98;0.85;;;;;;;;;;5007852;28;20196;-73
2023/03/24 12:20:54;;;;;;;1.70;0.65;;;;;;;;;;5008635;28;20038;-78
2023/03/24 12:23:23;;;;;;;1.23;0.70;;;;;;;;;;5008789;28;20127;-77
2023/03/24 12:25:57;;;;;;;1.73;0.93;;;;;;;;;;5008598;28;20118;-76
2023/03/24 12:28:42;;;;;;;5.65;1.45;;;;;;;;;;5008102;28;20343;-74
2023/03/24 12:31:08;;;;;;;1.27;0.80;;;;;;;;;;5009938;28;20026;-77
2023/03/24 12:33:36;;;;;;;4.93;0.80;;;;;;;;;;5010295;28;20559;-78
2023/03/24 12:36:17;;;;;;;2.90;0.93;;;;;;;;;;4991664;28;20113;-77
2023/03/24 12:38:49;;;;;;;0.88;0.60;;;;;;;;;;4989468;28;20101;-75
2023/03/24 12:41:18;;;;;;;2.08;0.70;;;;;;;;;;4990233;28;20062;-77
2023/03/24 12:43:53;;;;;;;1.20;0.80;;;;;;;;;;4990359;28;20031;-75
2023/03/24 12:46:29;;;;;;;2.15;0.77;;;;;;;;;;4990652;28;20430;-74
2023/03/24 12:49:07;;;;;;;1.75;0.57;;;;;;;;;;4972140;28;20026;-76
2023/03/24 12:51:36;;;;;;;0.68;0.55;;;;;;;;;;4990501;28;20025;-76
2023/03/24 12:54:17;;;;;;;1.02;0.63;;;;;;;;;;5002937;28;20057;-77
2023/03/24 12:56:46;;;;;;;2.20;0.55;;;;;;;;;;5009875;28;20045;-76
2023/03/24 12:59:26;;;;;;;0.40;0.40;;;;;;;;;;5009015;28;20032;-77
2023/03/24 13:02:03;;;;;;;2.15;0.70;;;;;;;;;;5009775;28;20395;-76
2023/03/24 13:04:31;;;;;;;2.83;1.08;;;;;;;;;;5009723;28;20057;-76
2023/03/24 13:06:57;;;;;;;2.10;0.77;;;;;;;;;;5009635;28;20030;-73
2023/03/24 13:09:32;;;;;;;2.63;0.88;;;;;;;;;;4994064;28;20033;-74
2023/03/24 13:12:17;;;;;;;1.33;0.63;;;;;;;;;;4990292;28;20029;-75
2023/03/24 13:14:49;;;;;;;1.10;0.80;;;;;;;;;;4990042;28;20067;-76
2023/03/24 13:17:38;;;;;;;3.45;0.70;;;;;;;;;;4989443;28;20029;-76
2023/03/24 13:20:05;;;;;;;2.80;1.08;;;;;;;;;;4989878;28;20128;-76
2023/03/24 13:22:33;;;;;;;0.75;0.75;;;;;;;;;;4990050;28;20022;-76
2023/03/24 13:25:00;;;;;;;1.40;0.95;;;;;;;;;;5009371;28;20022;-76
2023/03/24 13:27:38;;;;;;;0.70;0.70;;;;;;;;;;5008681;28;20301;-75
2023/03/24 13:30:19;;;;;;;1.48;0.73;;;;;;;;;;5009276;28;20114;-76
2023/03/24 13:32:47;;;;;;;1.02;0.70;;;;;;;;;;5009359;28;20069;-74
2023/03/24 13:35:13;;;;;;;1.88;0.93;;;;;;;;;;5009412;28;20034;-78
2023/03/24 13:37:59;;;;;;;1.42;0.88;;;;;;;;;;4995636;28;20029;-77
2023/03/24 13:40:27;;;;;;;1.92;0.80;;;;;;;;;;5009413;28;20541;-77
2023/03/24 13:42:55;;;;;;;2.25;0.80;;;;;;;;;;5009035;28;20564;-76
2023/03/24 13:45:24;;;;;;;0.90;0.73;;;;;;;;;;5009169;28;20037;-75
2023/03/24 13:47:53;;;;;;;2.08;0.50;;;;;;;;;;5008173;28;20022;-76
2023/03/24 13:50:19;;;;;;;1.15;0.75;;;;;;;;;;5008249;28;20415;-75
2023/03/24 13:52:47;;;;;;;0.95;0.77;;;;;;;;;;5007417;28;20069;-75
2023/03/24 13:55:26;;;;;;;1.45;1.05;;;;;;;;;;4989601;28;20030;-74
2023/03/24 13:57:55;;;;;;;3.15;0.98;;;;;;;;;;4988296;28;20482;-73
2023/03/24 14:00:22;;;;;;;2.78;1.00;;;;;;;;;;4987775;28;20510;-72
2023/03/24 14:02:50;;;;;;;1.70;0.80;;;;;;;;;;4988672;28;20030;-74
2023/03/24 14:05:22;;;;;;;3.03;1.02;;;;;;;;;;4989360;28;20023;-74
2023/03/24 14:07:49;;;;;;;10.93;2.28;;;;;;;;;;4986697;28;20064;-75
2023/03/24 14:10:19;;;;;;;10.15;2.70;;;;;;;;;;5000353;28;20105;-76
2023/03/24 14:12:53;;;;;;;6.93;1.98;;;;;;;;;;5008572;28;20447;-74
2023/03/24 14:15:27;;;;;;;4.85;2.22;;;;;;;;;;5008954;28;20110;-75
2023/03/24 14:17:56;;;;;;;2.42;1.30;;;;;;;;;;5008087;28;20108;-76
2023/03/24 14:20:25;;;;;;;2.60;1.15;;;;;;;;;;5008412;28;20034;-78
2023/03/24 14:22:51;;;;;;;2.75;1.60;;;;;;;;;;5005619;28;20087;-75
2023/03/24 14:25:17;;;;;;;3.40;1.75;;;;;;;;;;4996316;28;20492;-76
2023/03/24 14:27:45;;;;;;;3.13;1.67;;;;;;;;;;4988418;28;20030;-76
2023/03/24 14:30:11;;;;;;;5.90;2.05;;;;;;;;;;4998887;28;20434;-75
2023/03/24 14:32:39;;;;;;;3.85;2.25;;;;;;;;;;5007621;28;20373;-76
2023/03/24 14:35:05;;;;;;;4.00;1.70;;;;;;;;;;4989784;28;20025;-78
2023/03/24 14:37:31;;;;;;;3.83;2.08;;;;;;;;;;5006838;28;20094;-75
2023/03/24 14:39:58;;;;;;;3.05;1.80;;;;;;;;;;4999416;28;20031;-76
2023/03/24 14:42:27;;;;;;;4.45;1.73;;;;;;;;;;4987038;28;20034;-76
2023/03/24 14:44:57;;;;;;;5.38;1.55;;;;;;;;;;4988782;28;20026;-75
2023/03/24 14:47:29;;;;;;;2.75;1.63;;;;;;;;;;4988511;28;20033;-76
2023/03/24 14:49:56;;;;;;;3.05;1.58;;;;;;;;;;4971708;28;20027;-77
2023/03/24 14:52:24;;;;;;;6.63;1.95;;;;;;;;;;4989368;28;20023;-76
2023/03/24 14:54:55;;;;;;;6.13;2.38;;;;;;;;;;4993418;28;20107;-75
2023/03/24 14:57:28;;;;;;;5.53;1.67;;;;;;;;;;4994933;28;20037;-76